sensor_id;sensor_type;location;lat;lon;timestamp;pressure;altitude;pressure_sealevel;temperature;humidity
40994;BME280;26722;43.212;27.932;2023-05-19T00:00:01;55025.31;;;-146.72;53.20
40994;BME280;26722;43.212;27.932;2023-05-19T00:02:27;55016.88;;;-146.72;53.00
40994;BME280;26722;43.212;27.932;2023-05-19T00:04:58;55025.31;;;-146.72;53.58
40994;BME280;26722;43.212;27.932;2023-05-19T00:07:23;55023.19;;;-146.72;53.95
40994;BME280;26722;43.212;27.932;2023-05-19T00:09:51;55027.41;;;-146.72;54.53
40994;BME280;26722;43.212;27.932;2023-05-19T00:12:17;55021.09;;;-146.72;54.61
40994;BME280;26722;43.212;27.932;2023-05-19T00:14:42;55027.41;;;-146.72;53.81
40994;BME280;26722;43.212;27.932;2023-05-19T00:17:08;55027.41;;;-146.72;53.74
40994;BME280;26722;43.212;27.932;2023-05-19T00:19:33;55031.66;;;-146.72;53.86
40994;BME280;26722;43.212;27.932;2023-05-19T00:21:58;55018.97;;;-146.72;53.70
40994;BME280;26722;43.212;27.932;2023-05-19T00:24:24;55014.75;;;-146.72;53.44
40994;BME280;26722;43.212;27.932;2023-05-19T00:26:49;55004.19;;;-146.72;53.50
40994;BME280;26722;43.212;27.932;2023-05-19T00:29:15;55018.97;;;-146.72;53.61
40994;BME280;26722;43.212;27.932;2023-05-19T00:31:43;55014.75;;;-146.72;53.34
40994;BME280;26722;43.212;27.932;2023-05-19T00:34:08;55023.19;;;-146.72;53.35
40994;BME280;26722;43.212;27.932;2023-05-19T00:36:33;55014.75;;;-146.72;53.47
40994;BME280;26722;43.212;27.932;2023-05-19T00:38:59;55031.66;;;-146.72;53.78
40994;BME280;26722;43.212;27.932;2023-05-19T00:41:24;55035.88;;;-146.72;53.77
40994;BME280;26722;43.212;27.932;2023-05-19T00:43:50;55014.75;;;-146.72;53.58
40994;BME280;26722;43.212;27.932;2023-05-19T00:46:17;55021.09;;;-146.72;53.44
40994;BME280;26722;43.212;27.932;2023-05-19T00:48:42;55018.97;;;-146.72;53.39
40994;BME280;26722;43.212;27.932;2023-05-19T00:51:09;55027.41;;;-146.72;53.23
40994;BME280;26722;43.212;27.932;2023-05-19T00:53:38;55044.31;;;-146.72;53.41
40994;BME280;26722;43.212;27.932;2023-05-19T00:56:04;55014.75;;;-146.72;53.07
40994;BME280;26722;43.212;27.932;2023-05-19T00:58:30;55004.19;;;-146.72;52.98
40994;BME280;26722;43.212;27.932;2023-05-19T01:00:59;55010.53;;;-146.72;52.72
40994;BME280;26722;43.212;27.932;2023-05-19T01:03:29;55021.09;;;-146.72;52.42
40994;BME280;26722;43.212;27.932;2023-05-19T01:05:55;55027.41;;;-146.72;52.18
40994;BME280;26722;43.212;27.932;2023-05-19T01:08:20;55031.66;;;-146.72;51.45
40994;BME280;26722;43.212;27.932;2023-05-19T01:10:46;55021.09;;;-146.72;51.24
40994;BME280;26722;43.212;27.932;2023-05-19T01:13:11;55002.09;;;-146.72;51.31
40994;BME280;26722;43.212;27.932;2023-05-19T01:15:39;55010.53;;;-146.72;51.57
40994;BME280;26722;43.212;27.932;2023-05-19T01:18:11;55025.31;;;-146.72;52.12
40994;BME280;26722;43.212;27.932;2023-05-19T01:20:38;55012.63;;;-146.72;53.43
40994;BME280;26722;43.212;27.932;2023-05-19T01:31:20;55023.19;;;-146.72;57.46
40994;BME280;26722;43.212;27.932;2023-05-19T01:33:51;55033.75;;;-146.72;58.04
40994;BME280;26722;43.212;27.932;2023-05-19T01:36:16;55025.31;;;-146.72;58.82
40994;BME280;26722;43.212;27.932;2023-05-19T01:38:43;55035.88;;;-146.72;59.14
40994;BME280;26722;43.212;27.932;2023-05-19T01:41:09;55044.31;;;-146.72;59.63
40994;BME280;26722;43.212;27.932;2023-05-19T01:43:35;55056.97;;;-146.72;59.71
40994;BME280;26722;43.212;27.932;2023-05-19T01:46:01;55048.53;;;-146.72;59.97
40994;BME280;26722;43.212;27.932;2023-05-19T01:48:27;55046.41;;;-146.72;60.63
40994;BME280;26722;43.212;27.932;2023-05-19T01:50:53;55040.09;;;-146.72;61.34
40994;BME280;26722;43.212;27.932;2023-05-19T01:53:21;55027.41;;;-146.72;61.67
40994;BME280;26722;43.212;27.932;2023-05-19T01:55:47;55031.66;;;-146.72;62.28
40994;BME280;26722;43.212;27.932;2023-05-19T01:58:22;55046.41;;;-146.72;62.44
40994;BME280;26722;43.212;27.932;2023-05-19T02:00:53;55048.53;;;-146.72;62.78
40994;BME280;26722;43.212;27.932;2023-05-19T02:03:31;55027.41;;;-146.72;62.98
40994;BME280;26722;43.212;27.932;2023-05-19T02:08:45;55035.88;;;-146.72;63.16
40994;BME280;26722;43.212;27.932;2023-05-19T02:11:22;55027.41;;;-146.72;63.21
40994;BME280;26722;43.212;27.932;2023-05-19T02:13:49;55023.19;;;-146.72;63.21
40994;BME280;26722;43.212;27.932;2023-05-19T02:16:17;55035.88;;;-146.72;63.12
40994;BME280;26722;43.212;27.932;2023-05-19T02:18:45;55029.53;;;-146.72;63.06
40994;BME280;26722;43.212;27.932;2023-05-19T02:21:12;55023.19;;;-146.72;62.93
40994;BME280;26722;43.212;27.932;2023-05-19T02:23:40;55033.75;;;-146.72;62.72
40994;BME280;26722;43.212;27.932;2023-05-19T02:26:06;55014.75;;;-146.72;62.94
40994;BME280;26722;43.212;27.932;2023-05-19T02:28:32;55033.75;;;-146.72;62.36
40994;BME280;26722;43.212;27.932;2023-05-19T02:30:58;55042.19;;;-146.72;62.83
40994;BME280;26722;43.212;27.932;2023-05-19T02:33:23;55031.66;;;-146.72;62.21
40994;BME280;26722;43.212;27.932;2023-05-19T02:35:49;55035.88;;;-146.72;62.09
40994;BME280;26722;43.212;27.932;2023-05-19T02:38:15;55027.41;;;-146.72;62.40
40994;BME280;26722;43.212;27.932;2023-05-19T02:40:40;55027.41;;;-146.72;61.87
40994;BME280;26722;43.212;27.932;2023-05-19T02:43:06;55033.75;;;-146.72;61.92
40994;BME280;26722;43.212;27.932;2023-05-19T02:45:32;55031.66;;;-146.72;61.84
40994;BME280;26722;43.212;27.932;2023-05-19T02:47:57;55014.75;;;-146.72;61.52
40994;BME280;26722;43.212;27.932;2023-05-19T02:50:23;55037.97;;;-146.72;61.08
40994;BME280;26722;43.212;27.932;2023-05-19T02:52:48;55029.53;;;-146.72;61.21
40994;BME280;26722;43.212;27.932;2023-05-19T02:55:13;55048.53;;;-146.72;61.17
40994;BME280;26722;43.212;27.932;2023-05-19T02:57:41;55012.63;;;-146.72;60.95
40994;BME280;26722;43.212;27.932;2023-05-19T03:00:06;55010.53;;;-146.72;60.73
40994;BME280;26722;43.212;27.932;2023-05-19T03:02:32;55025.31;;;-146.72;61.10
40994;BME280;26722;43.212;27.932;2023-05-19T03:04:58;55029.53;;;-146.72;60.65
40994;BME280;26722;43.212;27.932;2023-05-19T03:07:25;55042.19;;;-146.72;60.38
40994;BME280;26722;43.212;27.932;2023-05-19T03:09:51;55023.19;;;-146.72;60.26
40994;BME280;26722;43.212;27.932;2023-05-19T03:12:16;55027.41;;;-146.72;60.19
40994;BME280;26722;43.212;27.932;2023-05-19T03:14:42;55031.66;;;-146.72;60.14
40994;BME280;26722;43.212;27.932;2023-05-19T03:17:08;55027.41;;;-146.72;59.60
40994;BME280;26722;43.212;27.932;2023-05-19T03:19:34;55023.19;;;-146.72;59.49
40994;BME280;26722;43.212;27.932;2023-05-19T03:22:00;55025.31;;;-146.72;59.00
40994;BME280;26722;43.212;27.932;2023-05-19T03:24:25;55018.97;;;-146.72;58.64
40994;BME280;26722;43.212;27.932;2023-05-19T03:26:50;55012.63;;;-146.72;58.91
40994;BME280;26722;43.212;27.932;2023-05-19T03:29:16;55004.19;;;-146.72;58.56
40994;BME280;26722;43.212;27.932;2023-05-19T03:31:41;55023.19;;;-146.72;57.97
40994;BME280;26722;43.212;27.932;2023-05-19T03:34:06;55010.53;;;-146.72;57.56
40994;BME280;26722;43.212;27.932;2023-05-19T03:36:32;55002.09;;;-146.72;57.21
40994;BME280;26722;43.212;27.932;2023-05-19T03:39:06;54997.88;;;-146.72;56.68
40994;BME280;26722;43.212;27.932;2023-05-19T03:41:31;54985.19;;;-146.72;55.98
40994;BME280;26722;43.212;27.932;2023-05-19T03:43:57;55006.31;;;-146.72;55.26
40994;BME280;26722;43.212;27.932;2023-05-19T03:46:22;54995.75;;;-146.72;55.00
40994;BME280;26722;43.212;27.932;2023-05-19T03:48:48;54957.75;;;-146.72;54.10
40994;BME280;26722;43.212;27.932;2023-05-19T03:51:13;54989.41;;;-146.72;53.76
40994;BME280;26722;43.212;27.932;2023-05-19T03:53:38;54985.19;;;-146.72;53.71
40994;BME280;26722;43.212;27.932;2023-05-19T03:56:05;54985.19;;;-146.72;53.59
40994;BME280;26722;43.212;27.932;2023-05-19T03:58:31;54980.97;;;-146.72;53.59
40994;BME280;26722;43.212;27.932;2023-05-19T04:00:56;54968.31;;;-146.72;53.59
40994;BME280;26722;43.212;27.932;2023-05-19T04:03:22;54974.63;;;-146.72;53.39
40994;BME280;26722;43.212;27.932;2023-05-19T04:05:47;54983.09;;;-146.72;53.01
40994;BME280;26722;43.212;27.932;2023-05-19T04:08:12;54961.97;;;-146.72;52.59
40994;BME280;26722;43.212;27.932;2023-05-19T04:10:38;54951.41;;;-146.72;51.83
40994;BME280;26722;43.212;27.932;2023-05-19T04:13:03;54980.97;;;-146.72;51.76
40994;BME280;26722;43.212;27.932;2023-05-19T04:15:28;54970.41;;;-146.72;51.84
40994;BME280;26722;43.212;27.932;2023-05-19T04:17:54;54964.09;;;-146.72;50.86
40994;BME280;26722;43.212;27.932;2023-05-19T04:20:19;54974.63;;;-146.72;51.28
40994;BME280;26722;43.212;27.932;2023-05-19T04:22:45;54957.75;;;-146.72;50.78
40994;BME280;26722;43.212;27.932;2023-05-19T04:25:10;54964.09;;;-146.72;50.47
40994;BME280;26722;43.212;27.932;2023-05-19T04:27:35;54966.19;;;-146.72;50.45
40994;BME280;26722;43.212;27.932;2023-05-19T04:30:03;54978.88;;;-146.72;50.26
40994;BME280;26722;43.212;27.932;2023-05-19T04:32:28;54968.31;;;-146.72;50.85
40994;BME280;26722;43.212;27.932;2023-05-19T04:34:55;54993.63;;;-146.72;51.01
40994;BME280;26722;43.212;27.932;2023-05-19T04:37:20;54968.31;;;-146.72;50.46
40994;BME280;26722;43.212;27.932;2023-05-19T04:39:45;54959.88;;;-146.72;50.35
40994;BME280;26722;43.212;27.932;2023-05-19T04:42:12;54976.75;;;-146.72;49.99
40994;BME280;26722;43.212;27.932;2023-05-19T04:44:37;54974.63;;;-146.72;49.50
40994;BME280;26722;43.212;27.932;2023-05-19T04:47:07;54976.75;;;-146.72;49.61
40994;BME280;26722;43.212;27.932;2023-05-19T04:49:33;54972.53;;;-146.72;48.92
40994;BME280;26722;43.212;27.932;2023-05-19T04:52:03;54970.41;;;-146.72;48.92
40994;BME280;26722;43.212;27.932;2023-05-19T04:54:28;54964.09;;;-146.72;48.56
40994;BME280;26722;43.212;27.932;2023-05-19T04:56:53;54964.09;;;-146.72;48.97
40994;BME280;26722;43.212;27.932;2023-05-19T04:59:18;54968.31;;;-146.72;48.70
40994;BME280;26722;43.212;27.932;2023-05-19T05:01:44;54972.53;;;-146.72;48.36
40994;BME280;26722;43.212;27.932;2023-05-19T05:04:09;54966.19;;;-146.72;48.25
40994;BME280;26722;43.212;27.932;2023-05-19T05:06:34;54968.31;;;-146.72;48.48
40994;BME280;26722;43.212;27.932;2023-05-19T05:09:02;54974.63;;;-146.72;48.42
40994;BME280;26722;43.212;27.932;2023-05-19T05:11:28;54980.97;;;-146.72;48.63
40994;BME280;26722;43.212;27.932;2023-05-19T05:13:53;54976.75;;;-146.72;48.14
40994;BME280;26722;43.212;27.932;2023-05-19T05:16:22;54968.31;;;-146.72;47.87
40994;BME280;26722;43.212;27.932;2023-05-19T05:18:47;54968.31;;;-146.72;47.77
40994;BME280;26722;43.212;27.932;2023-05-19T05:21:12;54966.19;;;-146.72;47.01
40994;BME280;26722;43.212;27.932;2023-05-19T05:23:38;54968.31;;;-146.72;46.13
40994;BME280;26722;43.212;27.932;2023-05-19T05:26:04;54968.31;;;-146.72;45.09
40994;BME280;26722;43.212;27.932;2023-05-19T05:28:33;54974.63;;;-146.72;44.92
40994;BME280;26722;43.212;27.932;2023-05-19T05:30:58;54966.19;;;-146.72;44.40
40994;BME280;26722;43.212;27.932;2023-05-19T05:33:24;54968.31;;;-146.72;44.71
40994;BME280;26722;43.212;27.932;2023-05-19T05:35:51;54959.88;;;-146.72;44.78
40994;BME280;26722;43.212;27.932;2023-05-19T05:38:16;54964.09;;;-146.72;44.58
40994;BME280;26722;43.212;27.932;2023-05-19T05:40:41;54964.09;;;-146.72;44.54
40994;BME280;26722;43.212;27.932;2023-05-19T05:43:07;54964.09;;;-146.72;44.08
40994;BME280;26722;43.212;27.932;2023-05-19T05:45:32;54940.88;;;-146.72;43.67
40994;BME280;26722;43.212;27.932;2023-05-19T05:47:57;54951.41;;;-146.72;43.22
40994;BME280;26722;43.212;27.932;2023-05-19T05:50:23;54955.63;;;-146.72;42.84
40994;BME280;26722;43.212;27.932;2023-05-19T05:52:48;54934.53;;;-146.72;42.42
40994;BME280;26722;43.212;27.932;2023-05-19T05:55:15;54930.31;;;-146.72;41.88
40994;BME280;26722;43.212;27.932;2023-05-19T05:57:41;54936.63;;;-146.72;41.64
40994;BME280;26722;43.212;27.932;2023-05-19T06:00:07;54945.09;;;-146.72;41.27
40994;BME280;26722;43.212;27.932;2023-05-19T06:02:48;54934.53;;;-146.72;41.09
40994;BME280;26722;43.212;27.932;2023-05-19T06:05:14;54938.75;;;-146.72;40.62
40994;BME280;26722;43.212;27.932;2023-05-19T06:07:40;54938.75;;;-146.72;40.74
40994;BME280;26722;43.212;27.932;2023-05-19T06:10:06;54934.53;;;-146.72;40.71
40994;BME280;26722;43.212;27.932;2023-05-19T06:12:32;54945.09;;;-146.72;40.69
40994;BME280;26722;43.212;27.932;2023-05-19T06:14:58;54930.31;;;-146.72;40.70
40994;BME280;26722;43.212;27.932;2023-05-19T06:17:23;54930.31;;;-146.72;40.24
40994;BME280;26722;43.212;27.932;2023-05-19T06:19:49;54947.19;;;-146.72;39.83
40994;BME280;26722;43.212;27.932;2023-05-19T06:22:14;54921.88;;;-146.72;39.91
40994;BME280;26722;43.212;27.932;2023-05-19T06:24:40;54928.19;;;-146.72;39.43
40994;BME280;26722;43.212;27.932;2023-05-19T06:27:05;54940.88;;;-146.72;39.01
40994;BME280;26722;43.212;27.932;2023-05-19T06:29:30;54921.88;;;-146.72;38.90
40994;BME280;26722;43.212;27.932;2023-05-19T06:31:56;54930.31;;;-146.72;38.91
40994;BME280;26722;43.212;27.932;2023-05-19T06:34:21;54934.53;;;-146.72;38.74
40994;BME280;26722;43.212;27.932;2023-05-19T06:36:46;54934.53;;;-146.72;38.99
40994;BME280;26722;43.212;27.932;2023-05-19T06:39:12;54923.97;;;-146.72;38.95
40994;BME280;26722;43.212;27.932;2023-05-19T06:41:37;54909.19;;;-146.72;38.88
40994;BME280;26722;43.212;27.932;2023-05-19T06:44:03;54917.63;;;-146.72;38.67
40994;BME280;26722;43.212;27.932;2023-05-19T06:46:28;54913.41;;;-146.72;38.66
40994;BME280;26722;43.212;27.932;2023-05-19T06:48:53;54896.53;;;-146.72;38.32
40994;BME280;26722;43.212;27.932;2023-05-19T06:51:19;54900.75;;;-146.72;38.03
40994;BME280;26722;43.212;27.932;2023-05-19T06:53:49;54904.97;;;-146.72;37.30
40994;BME280;26722;43.212;27.932;2023-05-19T06:56:14;54909.19;;;-146.72;37.96
40994;BME280;26722;43.212;27.932;2023-05-19T06:58:40;54879.63;;;-146.72;37.69
40994;BME280;26722;43.212;27.932;2023-05-19T07:01:05;54896.53;;;-146.72;37.57
40994;BME280;26722;43.212;27.932;2023-05-19T07:03:31;54902.84;;;-146.72;37.39
40994;BME280;26722;43.212;27.932;2023-05-19T07:05:56;54900.75;;;-146.72;37.56
40994;BME280;26722;43.212;27.932;2023-05-19T07:08:21;54913.41;;;-146.72;37.44
40994;BME280;26722;43.212;27.932;2023-05-19T07:10:47;54911.31;;;-146.72;37.26
40994;BME280;26722;43.212;27.932;2023-05-19T07:13:12;54913.41;;;-146.72;37.22
40994;BME280;26722;43.212;27.932;2023-05-19T07:15:37;54907.09;;;-146.72;37.25
40994;BME280;26722;43.212;27.932;2023-05-19T07:18:02;54900.75;;;-146.72;36.69
40994;BME280;26722;43.212;27.932;2023-05-19T07:20:28;54894.41;;;-146.72;37.02
40994;BME280;26722;43.212;27.932;2023-05-19T07:22:53;54904.97;;;-146.72;37.17
40994;BME280;26722;43.212;27.932;2023-05-19T07:25:21;54911.31;;;-146.72;36.82
40994;BME280;26722;43.212;27.932;2023-05-19T07:27:46;54900.75;;;-146.72;36.75
40994;BME280;26722;43.212;27.932;2023-05-19T07:30:12;54902.84;;;-146.72;36.45
40994;BME280;26722;43.212;27.932;2023-05-19T07:32:37;54888.09;;;-146.72;36.20
40994;BME280;26722;43.212;27.932;2023-05-19T07:35:04;54909.19;;;-146.72;36.57
40994;BME280;26722;43.212;27.932;2023-05-19T07:37:29;54896.53;;;-146.72;36.24
40994;BME280;26722;43.212;27.932;2023-05-19T07:39:54;54904.97;;;-146.72;36.00
40994;BME280;26722;43.212;27.932;2023-05-19T07:42:20;54881.75;;;-146.72;35.63
40994;BME280;26722;43.212;27.932;2023-05-19T07:44:45;54875.41;;;-146.72;35.17
40994;BME280;26722;43.212;27.932;2023-05-19T07:47:10;54875.41;;;-146.72;35.26
40994;BME280;26722;43.212;27.932;2023-05-19T07:49:36;54885.97;;;-146.72;34.99
40994;BME280;26722;43.212;27.932;2023-05-19T07:52:01;54879.63;;;-146.72;34.82
40994;BME280;26722;43.212;27.932;2023-05-19T07:54:26;54879.63;;;-146.72;33.76
40994;BME280;26722;43.212;27.932;2023-05-19T07:56:52;54864.88;;;-146.72;35.62
40994;BME280;26722;43.212;27.932;2023-05-19T07:59:17;54858.53;;;-146.72;37.54
40994;BME280;26722;43.212;27.932;2023-05-19T08:01:42;54881.75;;;-146.72;35.68
40994;BME280;26722;43.212;27.932;2023-05-19T08:04:09;54858.53;;;-146.72;34.38
40994;BME280;26722;43.212;27.932;2023-05-19T08:06:34;54888.09;;;-146.72;34.39
40994;BME280;26722;43.212;27.932;2023-05-19T08:08:59;54866.97;;;-146.72;35.06
40994;BME280;26722;43.212;27.932;2023-05-19T08:11:25;54875.41;;;-146.72;35.28
40994;BME280;26722;43.212;27.932;2023-05-19T08:13:51;54858.53;;;-146.72;37.72
40994;BME280;26722;43.212;27.932;2023-05-19T08:16:16;54860.63;;;-146.72;39.84
40994;BME280;26722;43.212;27.932;2023-05-19T08:18:41;54862.75;;;-146.72;38.62
40994;BME280;26722;43.212;27.932;2023-05-19T08:21:07;54860.63;;;-146.72;36.80
40994;BME280;26722;43.212;27.932;2023-05-19T08:23:32;54856.41;;;-146.72;37.34
40994;BME280;26722;43.212;27.932;2023-05-19T08:25:58;54858.53;;;-146.72;35.86
40994;BME280;26722;43.212;27.932;2023-05-19T08:28:23;54854.31;;;-146.72;35.28
40994;BME280;26722;43.212;27.932;2023-05-19T08:30:49;54841.63;;;-146.72;33.99
40994;BME280;26722;43.212;27.932;2023-05-19T08:33:16;54858.53;;;-146.72;34.38
40994;BME280;26722;43.212;27.932;2023-05-19T08:35:41;54879.63;;;-146.72;34.43
40994;BME280;26722;43.212;27.932;2023-05-19T08:38:07;54866.97;;;-146.72;35.13
40994;BME280;26722;43.212;27.932;2023-05-19T08:40:32;54875.41;;;-146.72;34.73
40994;BME280;26722;43.212;27.932;2023-05-19T08:42:58;54860.63;;;-146.72;34.91
40994;BME280;26722;43.212;27.932;2023-05-19T08:45:24;54850.09;;;-146.72;34.59
40994;BME280;26722;43.212;27.932;2023-05-19T08:47:50;54858.53;;;-146.72;34.02
40994;BME280;26722;43.212;27.932;2023-05-19T08:50:28;54858.53;;;-146.72;33.96
40994;BME280;26722;43.212;27.932;2023-05-19T08:52:55;54845.88;;;-146.72;34.70
40994;BME280;26722;43.212;27.932;2023-05-19T08:58:22;54850.09;;;-146.72;33.56
40994;BME280;26722;43.212;27.932;2023-05-19T09:00:48;54862.75;;;-146.72;33.60
40994;BME280;26722;43.212;27.932;2023-05-19T09:03:15;54858.53;;;-146.72;33.41
40994;BME280;26722;43.212;27.932;2023-05-19T09:05:41;54858.53;;;-146.72;33.85
40994;BME280;26722;43.212;27.932;2023-05-19T09:08:06;54854.31;;;-146.72;32.95
40994;BME280;26722;43.212;27.932;2023-05-19T09:10:32;54864.88;;;-146.72;34.34
40994;BME280;26722;43.212;27.932;2023-05-19T09:12:57;54847.97;;;-146.72;36.17
40994;BME280;26722;43.212;27.932;2023-05-19T09:15:25;54860.63;;;-146.72;36.67
40994;BME280;26722;43.212;27.932;2023-05-19T09:17:50;54854.31;;;-146.72;38.02
40994;BME280;26722;43.212;27.932;2023-05-19T09:20:16;54866.97;;;-146.72;38.47
40994;BME280;26722;43.212;27.932;2023-05-19T09:22:45;54892.31;;;-146.72;39.24
40994;BME280;26722;43.212;27.932;2023-05-19T09:25:23;54879.63;;;-146.72;40.64
40994;BME280;26722;43.212;27.932;2023-05-19T09:27:49;54883.84;;;-146.72;41.38
40994;BME280;26722;43.212;27.932;2023-05-19T09:30:15;54885.97;;;-146.72;41.69
40994;BME280;26722;43.212;27.932;2023-05-19T09:32:41;54883.84;;;-146.72;41.93
40994;BME280;26722;43.212;27.932;2023-05-19T09:35:06;54883.84;;;-146.72;41.75
40994;BME280;26722;43.212;27.932;2023-05-19T09:37:32;54875.41;;;-146.72;41.45
40994;BME280;26722;43.212;27.932;2023-05-19T09:39:58;54888.09;;;-146.72;41.65
40994;BME280;26722;43.212;27.932;2023-05-19T09:42:23;54858.53;;;-146.72;42.06
40994;BME280;26722;43.212;27.932;2023-05-19T09:44:57;54883.84;;;-146.72;42.64
40994;BME280;26722;43.212;27.932;2023-05-19T09:47:23;54873.31;;;-146.72;43.66
40994;BME280;26722;43.212;27.932;2023-05-19T09:49:48;54892.31;;;-146.72;43.67
40994;BME280;26722;43.212;27.932;2023-05-19T09:52:14;54871.19;;;-146.72;42.35
40994;BME280;26722;43.212;27.932;2023-05-19T09:54:43;54890.19;;;-146.72;43.02
40994;BME280;26722;43.212;27.932;2023-05-19T09:57:09;54881.75;;;-146.72;44.06
40994;BME280;26722;43.212;27.932;2023-05-19T09:59:34;54898.63;;;-146.72;45.00
40994;BME280;26722;43.212;27.932;2023-05-19T10:02:03;54898.63;;;-146.72;46.21
40994;BME280;26722;43.212;27.932;2023-05-19T10:04:28;54888.09;;;-146.72;46.43
40994;BME280;26722;43.212;27.932;2023-05-19T10:06:54;54890.19;;;-146.72;46.67
40994;BME280;26722;43.212;27.932;2023-05-19T10:09:25;54892.31;;;-146.72;45.98
40994;BME280;26722;43.212;27.932;2023-05-19T10:11:51;54890.19;;;-146.72;44.65
40994;BME280;26722;43.212;27.932;2023-05-19T10:14:27;54890.19;;;-146.72;44.73
40994;BME280;26722;43.212;27.932;2023-05-19T10:16:54;54866.97;;;-146.72;42.76
40994;BME280;26722;43.212;27.932;2023-05-19T10:19:20;54883.84;;;-146.72;41.36
40994;BME280;26722;43.212;27.932;2023-05-19T10:21:49;54869.09;;;-146.72;40.61
40994;BME280;26722;43.212;27.932;2023-05-19T10:24:15;54866.97;;;-146.72;39.11
40994;BME280;26722;43.212;27.932;2023-05-19T10:26:42;54879.63;;;-146.72;39.81
40994;BME280;26722;43.212;27.932;2023-05-19T10:29:08;54871.19;;;-146.72;40.24
40994;BME280;26722;43.212;27.932;2023-05-19T10:31:34;54871.19;;;-146.72;40.27
40994;BME280;26722;43.212;27.932;2023-05-19T10:34:44;54866.97;;;-146.72;40.55
40994;BME280;26722;43.212;27.932;2023-05-19T10:39:24;54864.88;;;-146.72;39.46
40994;BME280;26722;43.212;27.932;2023-05-19T10:46:55;54862.75;;;-146.72;37.92
40994;BME280;26722;43.212;27.932;2023-05-19T10:49:21;54862.75;;;-146.72;38.59
40994;BME280;26722;43.212;27.932;2023-05-19T10:51:46;54856.41;;;-146.72;38.85
40994;BME280;26722;43.212;27.932;2023-05-19T10:54:12;54850.09;;;-146.72;38.59
40994;BME280;26722;43.212;27.932;2023-05-19T10:56:40;54852.19;;;-146.72;38.74
40994;BME280;26722;43.212;27.932;2023-05-19T10:59:06;54854.31;;;-146.72;38.69
40994;BME280;26722;43.212;27.932;2023-05-19T11:01:33;54852.19;;;-146.72;38.27
40994;BME280;26722;43.212;27.932;2023-05-19T11:04:06;54866.97;;;-146.72;39.26
40994;BME280;26722;43.212;27.932;2023-05-19T11:06:33;54862.75;;;-146.72;38.69
40994;BME280;26722;43.212;27.932;2023-05-19T11:14:09;54845.88;;;-146.72;39.09
40994;BME280;26722;43.212;27.932;2023-05-19T11:16:35;54847.97;;;-146.72;39.87
40994;BME280;26722;43.212;27.932;2023-05-19T11:19:01;54858.53;;;-146.72;39.84
40994;BME280;26722;43.212;27.932;2023-05-19T11:21:45;54858.53;;;-146.72;38.74
40994;BME280;26722;43.212;27.932;2023-05-19T11:24:32;54850.09;;;-146.72;39.40
40994;BME280;26722;43.212;27.932;2023-05-19T11:26:57;54862.75;;;-146.72;38.92
40994;BME280;26722;43.212;27.932;2023-05-19T11:29:22;54847.97;;;-146.72;39.43
40994;BME280;26722;43.212;27.932;2023-05-19T11:31:48;54852.19;;;-146.72;40.64
40994;BME280;26722;43.212;27.932;2023-05-19T11:34:13;54850.09;;;-146.72;40.98
40994;BME280;26722;43.212;27.932;2023-05-19T11:36:39;54845.88;;;-146.72;41.94
40994;BME280;26722;43.212;27.932;2023-05-19T11:39:05;54858.53;;;-146.72;42.08
40994;BME280;26722;43.212;27.932;2023-05-19T11:41:37;54852.19;;;-146.72;43.00
40994;BME280;26722;43.212;27.932;2023-05-19T11:44:02;54845.88;;;-146.72;43.31
40994;BME280;26722;43.212;27.932;2023-05-19T11:46:27;54850.09;;;-146.72;43.76
40994;BME280;26722;43.212;27.932;2023-05-19T11:48:52;54850.09;;;-146.72;44.40
40994;BME280;26722;43.212;27.932;2023-05-19T11:51:19;54858.53;;;-146.72;43.75
40994;BME280;26722;43.212;27.932;2023-05-19T11:53:47;54858.53;;;-146.72;43.82
40994;BME280;26722;43.212;27.932;2023-05-19T11:56:13;54854.31;;;-146.72;44.05
40994;BME280;26722;43.212;27.932;2023-05-19T11:58:39;54869.09;;;-146.72;43.99
40994;BME280;26722;43.212;27.932;2023-05-19T12:01:04;54862.75;;;-146.72;44.60
40994;BME280;26722;43.212;27.932;2023-05-19T12:03:30;54881.75;;;-146.72;44.86
40994;BME280;26722;43.212;27.932;2023-05-19T12:05:56;54879.63;;;-146.72;45.01
40994;BME280;26722;43.212;27.932;2023-05-19T12:08:22;54862.75;;;-146.72;45.49
40994;BME280;26722;43.212;27.932;2023-05-19T12:10:47;54854.31;;;-146.72;45.58
40994;BME280;26722;43.212;27.932;2023-05-19T12:13:16;54879.63;;;-146.72;45.65
40994;BME280;26722;43.212;27.932;2023-05-19T12:15:41;54862.75;;;-146.72;45.98
40994;BME280;26722;43.212;27.932;2023-05-19T12:18:07;54852.19;;;-146.72;45.50
40994;BME280;26722;43.212;27.932;2023-05-19T12:20:32;54866.97;;;-146.72;45.48
40994;BME280;26722;43.212;27.932;2023-05-19T12:22:59;54869.09;;;-146.72;45.46
40994;BME280;26722;43.212;27.932;2023-05-19T12:25:25;54869.09;;;-146.72;45.25
40994;BME280;26722;43.212;27.932;2023-05-19T12:27:55;54879.63;;;-146.72;45.31
40994;BME280;26722;43.212;27.932;2023-05-19T12:30:27;54860.63;;;-146.72;44.79
40994;BME280;26722;43.212;27.932;2023-05-19T12:32:54;54862.75;;;-146.72;44.31
40994;BME280;26722;43.212;27.932;2023-05-19T12:35:24;54871.19;;;-146.72;43.28
40994;BME280;26722;43.212;27.932;2023-05-19T12:37:49;54866.97;;;-146.72;42.00
40994;BME280;26722;43.212;27.932;2023-05-19T12:40:15;54881.75;;;-146.72;37.90
40994;BME280;26722;43.212;27.932;2023-05-19T12:42:43;54862.75;;;-146.72;40.53
40994;BME280;26722;43.212;27.932;2023-05-19T12:45:08;54875.41;;;-146.72;40.31
40994;BME280;26722;43.212;27.932;2023-05-19T12:47:34;54871.19;;;-146.72;40.22
40994;BME280;26722;43.212;27.932;2023-05-19T12:50:00;54860.63;;;-146.72;38.66
40994;BME280;26722;43.212;27.932;2023-05-19T12:52:27;54873.31;;;-146.72;38.77